Elkhart, Iowa
Current Conditions -  °F | °C
As of 12:15 PM on Friday 19 Dec 2014 (Local Time) from KIKV Reporting Station
Overcast Overcast  
Wind Chill: 26°   Ceiling: 4000
Heat Index: 32°   Visibility: 8mi
Dew Point: 28°   Wind: 6mph
Humidity: 87%   Direction: 150°SSE
Pressure: 30.24"   Gusts: NA
Location:  41.79°N, 93.52°W
Report Text: KIKV 191815Z AUTO 15005KT 8SM FEW010 OVC040 M00/M02 A3024 RMK AO2
Loading
Personal Weather Stations






























Interactive Weather Map New forecast layout! Learn more

10-Day Weather Forecast

Advertisements
Track Severe Weather on mobile